Calvia, Spain
Current Conditions -  °F | °C
As of 1:30 PM on Tuesday 27 Jan 2015 (Local Time) from LEPA Reporting Station
Few Clouds Few Clouds  
Wind Chill: 59°   Ceiling: Unl
Heat Index: 59°   Visibility: 6mi
Dew Point: 45°   Wind: 12mph
Humidity: 59%   Direction: 310°NW
Pressure: 30.18"   Gusts: NA
Location:  39.57°N, 2.51°E
Report Text: LEPA 271230Z 31010KT 9999 FEW030 15/07 Q1022 NOSIG
Loading
Personal Weather Stations






























Interactive Weather Map New forecast layout! Learn more

10-Day Weather Forecast

Advertisements
Track Severe Weather on mobile